To NAV CANADA Home Page Login to a new session Search on AWWS site Disclaimer Vers la page française équivalente Tips FAQ What's new on the site To the Forecasts and Observations / NOTAM section To "File a Flight Plan" website Publications and other links Update of the User's profile FIC Telephone Numbers My Weather Data Folder Route Weather Data Regional Weather Data Local Weather Data To the Forecasts and Observations / NOTAM section
Request Generated 03/21/2019 at 01:29:22 UTC . Weather information available at that time is displayed.

METAR/TAF

KELOWNA/BC    (show WxCam)

METAR CYLW 210100Z AUTO 00000KT 9SM CLR 16/01 A2997 RMK SLP162 DENSITY ALT 1700FT=
METAR CYLW 210000Z AUTO 00000KT 9SM CLR 16/00 A2999 RMK SLP166 DENSITY ALT 1700FT=
METAR CYLW 202300Z AUTO VRB02KT 9SM CLR 15/M00 A3000 RMK SLP172 DENSITY ALT 1600FT=

TAF CYLW 210038Z 2101/2113 VRB03KT P6SM SKC
RMK FCST BASED ON AUTO OBS. NXT FCST BY 210700Z=
Your time UTC time
Weather data provided by Environment Canada and NAV CANADA